Time;durP1;ratioP1;P1;durP2;ratioP2;P2;SDS_P1;SDS_P2;PMS_P1;PMS_P2;Temp;Humidity;BMP_temperature;BMP_pressure;BME280_temperature;BME280_humidity;BME280_pressure;Samples;Min_cycle;Max_cycle;Signal;HPM_P1;HPM_P2
2022/05/08 00:00:06;;;;;;;;;;;;;;;14.57;56.77;101974.91;4999687;28;102213;-46
2022/05/08 00:02:34;;;;;;;12.80;7.95;;;;;;;14.57;56.65;101969.41;4992237;28;102179;-48
2022/05/08 00:05:02;;;;;;;9.32;7.72;;;;;;;14.55;56.46;101966.09;4999406;28;103904;-47
2022/05/08 00:07:28;;;;;;;9.75;7.75;;;;;;;14.57;56.67;101974.03;5010984;28;101993;-50
2022/05/08 00:09:55;;;;;;;10.85;7.85;;;;;;;14.56;56.63;101980.63;4993738;28;101846;-48
2022/05/08 00:12:23;;;;;;;9.18;7.47;;;;;;;14.56;56.62;101967.75;5011551;28;102270;-46
2022/05/08 00:14:49;;;;;;;9.80;7.53;;;;;;;14.56;56.55;101972.41;4993893;28;103462;-46
2022/05/08 00:17:16;;;;;;;9.82;8.00;;;;;;;14.55;56.87;101971.59;4994114;28;102391;-46
2022/05/08 00:19:44;;;;;;;8.95;7.78;;;;;;;14.55;56.64;101971.59;4994599;28;101899;-48
2022/05/08 00:22:11;;;;;;;10.52;7.65;;;;;;;14.55;56.65;101977.06;4994942;28;102154;-46
2022/05/08 00:24:38;;;;;;;9.85;7.82;;;;;;;14.56;56.81;101962.25;5001250;28;103884;-48
2022/05/08 00:27:05;;;;;;;11.15;7.95;;;;;;;14.56;56.67;101966.94;4994196;28;102482;-47
2022/05/08 00:29:35;;;;;;;10.75;7.50;;;;;;;14.55;56.86;101971.59;4996158;28;102033;-46
2022/05/08 00:32:01;;;;;;;10.45;7.57;;;;;;;14.55;56.90;101974.31;5005341;28;102015;-47
2022/05/08 00:34:29;;;;;;;10.18;7.90;;;;;;;14.56;56.99;101972.41;5013885;28;104058;-46
2022/05/08 00:36:56;;;;;;;9.40;7.30;;;;;;;14.55;56.95;101963.38;5007470;28;102514;-47
2022/05/08 00:39:24;;;;;;;9.73;7.57;;;;;;;14.55;57.01;101963.38;5010438;28;101938;-47
2022/05/08 00:41:50;;;;;;;10.07;8.13;;;;;;;14.55;57.12;101960.63;5013102;28;102341;-45
2022/05/08 00:44:17;;;;;;;9.82;7.82;;;;;;;14.54;57.30;101961.72;5010257;28;103941;-45
2022/05/08 00:46:45;;;;;;;10.02;7.47;;;;;;;14.55;56.98;101968.84;5002943;28;102286;-48
2022/05/08 00:49:12;;;;;;;9.70;7.87;;;;;;;14.55;57.06;101963.38;5006949;28;102839;-45
2022/05/08 00:51:47;;;;;;;10.00;7.38;;;;;;;14.54;56.80;101961.72;5006493;28;102027;-45
2022/05/08 00:54:14;;;;;;;8.77;7.65;;;;;;;14.54;57.06;101959.00;5001559;28;103898;-48
2022/05/08 00:56:41;;;;;;;10.07;7.50;;;;;;;14.54;57.02;101959.00;4993827;28;102122;-46
2022/05/08 00:59:08;;;;;;;10.30;8.10;;;;;;;14.54;57.20;101959.00;4993875;28;102564;-45
2022/05/08 01:01:34;;;;;;;11.82;7.35;;;;;;;14.54;57.03;101959.00;4994570;28;102156;-48
2022/05/08 01:04:03;;;;;;;10.70;7.70;;;;;;;14.53;57.31;101957.31;4992729;28;103957;-45
2022/05/08 01:06:31;;;;;;;9.55;7.20;;;;;;;14.55;57.13;101951.59;4993789;28;102574;-46
2022/05/08 01:08:58;;;;;;;10.17;7.10;;;;;;;14.54;57.21;101959.00;4993609;28;102026;-46
2022/05/08 01:11:25;;;;;;;8.90;7.47;;;;;;;14.53;57.10;101953.75;5003299;28;102554;-48
2022/05/08 01:13:53;;;;;;;8.98;7.30;;;;;;;14.54;57.02;101958.16;4996887;28;103922;-46
2022/05/08 01:16:22;;;;;;;9.65;7.47;;;;;;;14.53;57.08;101954.56;4997255;28;102198;-46
2022/05/08 01:18:49;;;;;;;;;;;;;;;14.53;57.29;101951.03;4993988;28;101760;-46
2022/05/08 01:21:19;;;;;;;9.63;7.30;;;;;;;14.53;57.11;101951.84;5002498;28;102785;-45
2022/05/08 01:23:46;;;;;;;9.95;7.00;;;;;;;14.53;57.26;101945.53;4999166;28;104387;-45
2022/05/08 01:26:20;;;;;;;10.35;7.00;;;;;;;14.52;57.29;101946.66;5013675;28;102311;-47
2022/05/08 01:28:46;;;;;;;10.50;7.50;;;;;;;14.53;57.40;101951.84;5012915;28;102639;-45
2022/05/08 01:31:16;;;;;;;10.13;7.28;;;;;;;14.53;57.15;101946.38;5014573;28;102292;-48
2022/05/08 01:33:43;;;;;;;8.77;6.70;;;;;;;14.52;57.35;101950.19;4994188;28;104187;-46
2022/05/08 01:36:11;;;;;;;10.07;7.68;;;;;;;14.53;57.21;101949.09;4994330;28;101958;-45
2022/05/08 01:38:37;;;;;;;8.68;7.57;;;;;;;14.53;57.47;101957.31;4996346;28;102668;-49
2022/05/08 01:41:05;;;;;;;10.70;7.03;;;;;;;14.52;57.11;101955.69;4993981;28;102074;-46
2022/05/08 01:43:34;;;;;;;8.10;6.88;;;;;;;14.52;57.35;101957.59;5004719;28;103803;-45
2022/05/08 01:46:01;;;;;;;;;;;;;;;14.53;57.32;101956.50;5013730;28;101990;-45
2022/05/08 01:48:27;;;;;;;8.77;6.97;;;;;;;14.52;57.13;101960.34;4997935;28;102371;-46
2022/05/08 01:50:56;;;;;;;8.70;7.18;;;;;;;14.52;57.62;101955.69;4995158;28;102000;-46
2022/05/08 01:53:25;;;;;;;9.20;7.10;;;;;;;14.52;57.19;101960.34;5010762;28;103976;-46
2022/05/08 01:55:55;;;;;;;;;;;;;;;14.51;57.59;101954.03;5014376;28;102258;-45
2022/05/08 01:58:24;;;;;;;7.95;6.57;;;;;;;14.51;57.35;101954.03;5012638;28;102034;-46
2022/05/08 02:00:51;;;;;;;;;;;;;;;14.51;57.60;101959.53;5014682;28;102475;-46
2022/05/08 02:03:19;;;;;;;10.23;7.00;;;;;;;14.51;57.41;101951.31;5011291;28;104091;-46
2022/05/08 02:05:46;;;;;;;9.90;6.50;;;;;;;14.52;57.61;101955.69;5012996;28;102562;-46
2022/05/08 02:09:38;;;;;;;10.07;6.85;;;;;;;14.51;57.74;101950.47;5013118;27;102542;-83
2022/05/08 02:12:05;;;;;;;9.20;7.07;;;;;;;14.50;57.36;101952.41;5013631;27;102394;-84
2022/05/08 02:14:32;;;;;;;8.73;7.20;;;;;;;14.51;57.65;101950.47;5011209;28;103938;-84
2022/05/08 02:16:58;;;;;;;9.73;7.13;;;;;;;14.51;57.72;101951.31;4998324;28;102265;-84
2022/05/08 02:19:25;;;;;;;8.48;7.05;;;;;;;14.51;57.31;101954.03;4991425;28;101965;-83
2022/05/08 02:21:51;;;;;;;8.30;6.60;;;;;;;14.50;57.51;101963.34;5000593;28;102354;-84
2022/05/08 02:24:17;;;;;;;8.38;7.00;;;;;;;14.50;57.61;101960.63;5011500;28;104139;-84
2022/05/08 02:26:46;;;;;;;8.48;6.97;;;;;;;14.51;57.75;101959.53;5011412;28;101914;-83
2022/05/08 02:29:12;;;;;;;8.77;7.20;;;;;;;14.49;57.86;101961.66;5011097;28;102692;-83
2022/05/08 02:31:38;;;;;;;8.68;7.03;;;;;;;14.49;57.71;101958.91;5012798;28;102505;-84
2022/05/08 02:34:05;;;;;;;8.10;6.78;;;;;;;14.50;57.52;101957.06;5011153;28;103821;-83
2022/05/08 02:36:31;;;;;;;9.02;7.47;;;;;;;14.50;57.62;101963.34;5005028;28;102051;-84
2022/05/08 02:38:58;;;;;;;8.60;6.47;;;;;;;14.50;57.81;101963.34;5015645;28;102175;-83
2022/05/08 02:41:24;;;;;;;9.00;6.95;;;;;;;14.49;57.53;101969.88;5011484;28;102646;-83
2022/05/08 02:43:52;;;;;;;10.13;6.80;;;;;;;14.50;57.89;101970.75;5008198;28;103796;-84
2022/05/08 02:46:19;;;;;;;7.55;6.35;;;;;;;14.50;57.82;101974.31;5021683;28;102521;-83
2022/05/08 02:48:46;;;;;;;8.40;7.13;;;;;;;14.50;57.70;101968.84;5001195;28;102082;-83
2022/05/08 02:51:14;;;;;;;8.63;6.90;;;;;;;14.49;57.74;101972.63;5011850;28;102279;-84
2022/05/08 02:53:40;;;;;;;9.85;7.47;;;;;;;14.49;58.25;101972.63;5010753;28;103935;-83
2022/05/08 02:58:53;;;;;;;7.82;6.07;;;;;;;14.49;57.72;101983.56;5011071;28;102491;-83
2022/05/08 03:01:20;;;;;;;8.30;6.38;;;;;;;14.49;57.89;101982.75;5009500;28;102428;-83
2022/05/08 03:03:46;;;;;;;7.88;6.68;;;;;;;14.48;57.94;101984.66;5006497;28;103649;-84
2022/05/08 03:06:13;;;;;;;6.97;6.25;;;;;;;14.49;58.05;101989.03;4991854;28;102646;-83
2022/05/08 03:08:40;;;;;;;8.30;6.50;;;;;;;14.49;58.02;101991.78;4997481;28;102477;-83
2022/05/08 03:13:54;;;;;;;8.10;6.55;;;;;;;14.48;57.65;101984.66;5009920;28;103020;-83
2022/05/08 03:16:23;;;;;;;9.02;6.50;;;;;;;14.49;58.19;101996.44;5010287;28;101996;-82
2022/05/08 03:18:51;;;;;;;6.93;5.95;;;;;;;14.49;57.97;101993.72;5009038;28;101947;-82
2022/05/08 03:21:18;;;;;;;11.13;6.40;;;;;;;14.48;57.91;101995.63;4995548;28;102516;-82
2022/05/08 03:23:45;;;;;;;7.70;6.20;;;;;;;14.47;58.25;101999.47;4995959;28;104184;-82
2022/05/08 03:26:14;;;;;;;6.78;5.95;;;;;;;14.49;57.90;102007.41;4996463;28;102235;-83
2022/05/08 03:28:41;;;;;;;;;;;;;;;14.48;58.20;102003.84;4977667;28;102396;-83
2022/05/08 03:31:09;;;;;;;9.02;6.28;;;;;;;14.47;57.91;102004.94;4981350;28;102385;-83
2022/05/08 03:33:37;;;;;;;7.70;6.15;;;;;;;14.48;58.09;102006.59;4995752;28;103966;-83
2022/05/08 03:36:05;;;;;;;10.15;6.22;;;;;;;14.49;57.86;102008.22;4996806;28;101996;-84
2022/05/08 03:38:33;;;;;;;6.95;5.90;;;;;;;14.49;58.05;102010.97;4977373;28;102514;-83
2022/05/08 03:41:01;;;;;;;7.80;6.18;;;;;;;14.50;58.04;102020.06;4978661;28;102124;-83
2022/05/08 03:43:28;;;;;;;7.80;6.40;;;;;;;14.49;58.28;102010.13;4984990;28;103872;-82
2022/05/08 03:45:55;;;;;;;7.78;6.70;;;;;;;14.48;58.03;102014.81;4986676;28;102057;-84
2022/05/08 03:48:23;;;;;;;9.25;6.45;;;;;;;14.49;58.20;102005.47;4995412;28;102378;-84
2022/05/08 03:50:49;;;;;;;7.88;5.82;;;;;;;14.49;58.15;102005.47;4998538;28;102103;-83
2022/05/08 03:53:16;;;;;;;8.02;5.97;;;;;;;14.49;57.61;102010.97;4996109;28;103609;-84
2022/05/08 03:55:42;;;;;;;8.52;6.43;;;;;;;14.50;57.60;102011.84;4998438;28;102353;-84
2022/05/08 03:58:09;;;;;;;6.65;5.80;;;;;;;14.50;57.61;102007.19;4984550;28;102046;-83
2022/05/08 04:00:37;;;;;;;6.25;5.45;;;;;;;14.50;57.73;102004.44;4979049;28;102391;-83
2022/05/08 04:03:03;;;;;;;8.90;5.80;;;;;;;14.50;57.51;102007.19;4982648;28;104265;-84
2022/05/08 04:05:31;;;;;;;7.40;5.78;;;;;;;14.50;57.67;102012.66;4997359;28;102198;-84
2022/05/08 04:07:58;;;;;;;8.43;6.15;;;;;;;14.50;58.03;102012.66;4996552;28;101983;-84
2022/05/08 04:10:24;;;;;;;7.28;5.70;;;;;;;14.52;57.88;102015.13;4998957;28;102078;-84
2022/05/08 04:12:52;;;;;;;6.80;5.25;;;;;;;14.51;57.84;102014.31;4997230;28;104019;-83
2022/05/08 04:18:04;;;;;;;7.78;5.70;;;;;;;14.53;57.87;102009.38;4993420;28;102007;-83
2022/05/08 04:20:32;;;;;;;6.97;5.65;;;;;;;14.53;58.04;102003.06;4999655;28;102055;-83
2022/05/08 04:25:44;;;;;;;6.80;5.57;;;;;;;14.54;57.86;102018.44;4984010;28;101910;-84
2022/05/08 04:28:11;;;;;;;8.77;6.00;;;;;;;14.55;57.83;102014.59;4978454;28;101754;-84
2022/05/08 04:30:38;;;;;;;9.10;6.45;;;;;;;14.55;57.46;102014.59;4993929;28;102407;-84
2022/05/08 04:33:11;;;;;;;7.82;5.82;;;;;;;14.56;57.63;102010.75;4997892;28;103096;-84
2022/05/08 04:35:44;;;;;;;8.77;6.18;;;;;;;14.56;57.74;102014.31;4991964;28;102309;-84
2022/05/08 04:38:11;;;;;;;10.18;6.10;;;;;;;14.56;57.74;102017.06;4992032;28;102180;-84
2022/05/08 04:40:42;;;;;;;8.27;6.05;;;;;;;14.57;57.71;102018.72;5000882;28;101954;-84
2022/05/08 04:43:09;;;;;;;8.70;6.25;;;;;;;14.57;57.88;102013.25;4998163;28;103819;-83
2022/05/08 04:45:36;;;;;;;7.50;6.38;;;;;;;14.58;57.77;102014.88;4998381;28;102405;-84
2022/05/08 04:48:03;;;;;;;8.82;6.00;;;;;;;14.60;57.67;102017.34;4995926;28;102164;-84
2022/05/08 04:50:30;;;;;;;8.18;5.55;;;;;;;14.60;58.04;102012.69;4988526;28;102078;-84
2022/05/08 04:52:58;;;;;;;8.05;6.00;;;;;;;14.61;57.95;102008.88;4977782;28;103987;-84
2022/05/08 04:55:25;;;;;;;8.25;5.85;;;;;;;14.62;58.25;102009.69;4992823;28;101994;-84
2022/05/08 04:57:51;;;;;;;8.35;5.50;;;;;;;14.63;58.07;102020.38;4993202;28;102559;-84
2022/05/08 05:00:18;;;;;;;7.55;5.80;;;;;;;14.64;57.97;102018.47;4976460;28;102143;-84
2022/05/08 05:02:46;;;;;;;7.18;4.88;;;;;;;14.66;57.70;102028.06;4985009;28;103891;-84
2022/05/08 05:05:12;;;;;;;8.05;5.78;;;;;;;14.66;57.86;102022.59;4993726;28;102030;-84
2022/05/08 05:07:42;;;;;;;7.03;5.32;;;;;;;14.68;57.56;102025.09;4993389;28;102346;-84
2022/05/08 05:10:11;;;;;;;7.55;5.07;;;;;;;14.70;57.81;102027.53;4986731;28;102177;-84
2022/05/08 05:12:39;;;;;;;6.82;5.07;;;;;;;14.71;57.68;102026.44;4998867;28;104249;-84
2022/05/08 05:15:11;;;;;;;5.80;5.03;;;;;;;14.73;57.62;102032.50;4988645;28;103269;-83
2022/05/08 05:17:37;;;;;;;6.50;4.88;;;;;;;14.74;57.80;102034.13;4989245;28;102218;-84
2022/05/08 05:20:05;;;;;;;7.22;5.28;;;;;;;14.75;57.55;102030.28;4991440;28;102705;-84
2022/05/08 05:22:33;;;;;;;5.97;4.63;;;;;;;14.76;57.70;102032.78;4989860;28;104110;-84
2022/05/08 05:24:59;;;;;;;7.93;4.80;;;;;;;14.78;57.92;102035.25;4988153;28;102373;-82
2022/05/08 05:27:28;;;;;;;6.35;4.75;;;;;;;14.80;57.86;102027.59;4992338;28;102172;-83
2022/05/08 05:29:55;;;;;;;9.38;5.28;;;;;;;14.81;57.81;102034.72;4995584;28;102625;-83
2022/05/08 05:32:21;;;;;;;6.75;4.53;;;;;;;14.82;57.87;102030.88;4992421;28;103925;-83
2022/05/08 05:34:48;;;;;;;8.00;5.05;;;;;;;14.84;57.64;102034.19;4992860;28;102391;-84
2022/05/08 05:37:15;;;;;;;6.45;4.93;;;;;;;14.85;57.77;102033.91;4994283;28;102478;-83
2022/05/08 05:39:43;;;;;;;5.40;4.28;;;;;;;14.85;57.92;102036.63;4979967;28;102561;-85
2022/05/08 05:42:09;;;;;;;5.13;4.40;;;;;;;14.87;57.57;102033.66;4990732;28;104304;-84
2022/05/08 05:44:38;;;;;;;7.32;4.82;;;;;;;14.89;57.65;102037.78;4995280;28;102341;-84
2022/05/08 05:49:50;;;;;;;6.60;4.65;;;;;;;14.92;57.73;102035.56;4987114;28;102824;-83
2022/05/08 05:52:17;;;;;;;5.75;4.40;;;;;;;14.94;57.49;102041.63;4987479;28;104143;-83
2022/05/08 05:54:44;;;;;;;6.43;4.53;;;;;;;14.94;57.89;102034.22;4990313;28;102585;-83
2022/05/08 05:57:10;;;;;;;6.30;4.45;;;;;;;14.96;57.92;102032.03;4993857;28;101921;-82
2022/05/08 05:59:38;;;;;;;7.38;4.40;;;;;;;14.97;57.78;102027.38;4994710;28;102127;-83
2022/05/08 06:02:05;;;;;;;8.48;4.78;;;;;;;14.99;57.71;102036.16;4993117;28;103783;-83
2022/05/08 06:04:32;;;;;;;6.63;4.65;;;;;;;14.99;57.63;102031.50;4994240;28;102385;-83
2022/05/08 06:06:59;;;;;;;5.43;4.78;;;;;;;15.00;57.92;102033.16;4992517;28;102307;-83
2022/05/08 06:09:25;;;;;;;5.70;4.35;;;;;;;15.02;57.59;102030.97;4994334;28;102287;-83
2022/05/08 06:11:53;;;;;;;7.15;4.90;;;;;;;15.03;57.63;102027.13;4992620;28;103383;-83
2022/05/08 06:14:21;;;;;;;5.75;4.40;;;;;;;15.04;57.93;102025.22;4990826;28;103534;-83
2022/05/08 06:16:49;;;;;;;6.82;4.47;;;;;;;15.06;57.71;102031.25;4991064;28;102003;-83
2022/05/08 06:19:16;;;;;;;8.55;4.65;;;;;;;15.06;57.93;102032.06;4994566;28;102694;-83
2022/05/08 06:21:42;;;;;;;5.75;4.22;;;;;;;15.06;57.87;102032.06;4991126;28;104032;-83
2022/05/08 06:24:09;;;;;;;5.90;4.63;;;;;;;15.08;57.93;102029.88;4993647;28;102572;-82
2022/05/08 06:26:36;;;;;;;6.30;4.82;;;;;;;15.08;57.66;102027.16;4989897;28;102294;-83
2022/05/08 06:29:04;;;;;;;7.43;4.50;;;;;;;15.10;57.50;102024.94;4994232;28;102480;-83
2022/05/08 06:31:32;;;;;;;7.10;4.75;;;;;;;15.10;57.50;102027.69;4974999;28;104220;-83
2022/05/08 06:34:00;;;;;;;7.40;4.00;;;;;;;15.13;57.83;102031.81;4993226;28;101961;-83
2022/05/08 06:36:26;;;;;;;7.95;5.05;;;;;;;15.12;57.73;102022.75;4992789;28;101785;-83
2022/05/08 06:38:53;;;;;;;6.43;4.00;;;;;;;15.14;57.89;102026.03;4979928;28;102150;-83
2022/05/08 06:41:21;;;;;;;6.90;3.85;;;;;;;15.15;57.62;102024.16;4992490;28;104114;-83
2022/05/08 06:43:47;;;;;;;5.40;4.28;;;;;;;15.17;57.92;102026.63;4984017;28;101998;-83
2022/05/08 06:46:15;;;;;;;5.00;3.97;;;;;;;15.17;57.57;102024.69;4990739;28;102519;-83
2022/05/08 06:48:41;;;;;;;6.97;3.92;;;;;;;15.18;57.70;102023.59;4990761;28;102269;-83
2022/05/08 06:51:11;;;;;;;4.40;3.78;;;;;;;15.19;57.53;102024.44;4992184;28;103974;-83
2022/05/08 06:53:40;;;;;;;5.15;3.88;;;;;;;15.20;57.77;102017.84;4993245;28;101938;-83
2022/05/08 06:56:07;;;;;;;8.18;4.25;;;;;;;15.20;57.77;102020.59;4992431;28;102013;-83
2022/05/08 07:01:34;;;;;;;5.78;3.47;;;;;;;15.22;57.50;102018.38;4993975;28;102481;-83
2022/05/08 07:01:42;;;;;;;4.72;3.60;;;;;;;15.23;57.59;102022.81;4993372;28;103944;-83
2022/05/08 07:04:11;;;;;;;3.47;3.15;;;;;;;15.23;57.66;102020.06;4992052;28;102748;-83
2022/05/08 07:06:39;;;;;;;4.78;3.50;;;;;;;15.24;57.22;102029.91;4994316;28;102423;-83
2022/05/08 07:09:07;;;;;;;4.60;3.28;;;;;;;15.25;57.63;102028.81;4992378;28;104216;-83
2022/05/08 07:11:33;;;;;;;5.10;3.53;;;;;;;15.26;57.26;102025.00;4995177;28;104174;-83
2022/05/08 07:14:01;;;;;;;4.78;3.78;;;;;;;15.27;57.30;102026.63;4994989;28;101997;-83
2022/05/08 07:16:27;;;;;;;4.75;3.30;;;;;;;15.29;57.51;102032.66;4992321;28;102181;-85
2022/05/08 07:18:54;;;;;;;12.88;2.80;;;;;;;15.29;57.12;102018.94;4989841;28;102806;-83
2022/05/08 07:21:20;;;;;;;9.45;3.28;;;;;;;15.30;56.99;102026.09;4992035;28;103921;-84
2022/05/08 07:23:50;;;;;;;7.25;2.67;;;;;;;15.31;56.58;102027.75;4993090;28;102595;-83
2022/05/08 07:26:17;;;;;;;8.00;2.35;;;;;;;15.31;55.81;102027.75;4990241;28;102123;-83
2022/05/08 07:28:44;;;;;;;20.35;3.28;;;;;;;15.31;55.58;102033.22;4998468;28;102206;-83
2022/05/08 07:31:13;;;;;;;6.65;2.40;;;;;;;15.31;55.71;102023.06;4997242;28;104142;-83
2022/05/08 07:36:12;;;;;;;8.63;2.60;;;;;;;15.32;55.29;102029.38;4995790;28;102589;-83
2022/05/08 07:36:35;;;;;;;6.63;2.47;;;;;;;15.32;54.69;102024.72;4995468;28;102491;-83
2022/05/08 07:39:03;;;;;;;6.63;2.70;;;;;;;15.33;53.79;102031.06;4996916;28;102313;-83
2022/05/08 07:41:30;;;;;;;11.63;2.83;;;;;;;15.34;54.09;102027.22;4988687;28;103949;-83
2022/05/08 07:43:57;;;;;;;3.95;2.30;;;;;;;15.35;54.66;102017.88;4985608;28;102542;-83
2022/05/08 07:46:25;;;;;;;5.85;2.15;;;;;;;15.36;54.40;102019.50;4991595;28;102030;-82
2022/05/08 07:48:53;;;;;;;6.25;2.17;;;;;;;15.36;53.66;102019.50;4992802;28;103722;-82
2022/05/08 07:51:26;;;;;;;3.67;2.33;;;;;;;15.37;51.43;102026.66;4994624;28;103895;-84
2022/05/08 07:53:55;;;;;;;5.03;2.10;;;;;;;15.38;53.64;102028.31;4989174;28;101969;-82
2022/05/08 07:56:23;;;;;;;6.78;2.00;;;;;;;15.38;53.57;102031.06;4985377;28;102339;-83
2022/05/08 07:58:49;;;;;;;8.35;4.57;;;;;;;15.40;52.93;102026.13;4996671;28;102677;-83
2022/05/08 08:01:16;;;;;;;9.80;5.63;;;;;;;15.40;53.03;102020.63;4991127;28;104456;-83
2022/05/08 08:03:44;;;;;;;5.32;3.00;;;;;;;15.40;53.00;102034.34;4994328;28;102182;-83
2022/05/08 08:06:10;;;;;;;6.28;2.20;;;;;;;15.41;51.13;102027.78;4995877;28;102605;-83
2022/05/08 08:08:39;;;;;;;4.72;2.10;;;;;;;15.42;52.38;102028.59;4994922;28;102659;-83
2022/05/08 08:11:07;;;;;;;3.55;2.15;;;;;;;15.42;52.47;102034.06;4994715;28;104213;-84
2022/05/08 08:13:35;;;;;;;5.47;2.25;;;;;;;15.42;52.64;102034.91;4986479;28;103676;-83
2022/05/08 08:16:05;;;;;;;3.17;2.30;;;;;;;15.42;53.00;102025.84;4982893;28;101904;-83
2022/05/08 08:18:31;;;;;;;4.95;2.08;;;;;;;15.41;52.80;102032.44;4995568;28;104295;-84
2022/05/08 08:20:58;;;;;;;5.20;2.08;;;;;;;15.40;52.24;102026.13;4994856;28;104579;-84
2022/05/08 08:23:27;;;;;;;13.23;2.47;;;;;;;15.42;52.79;102031.31;4993237;28;102084;-86
2022/05/08 08:25:54;;;;;;;;;;;;;;;15.42;52.35;102029.41;4988777;28;102821;-82
2022/05/08 08:28:21;;;;;;;20.88;2.53;;;;;;;15.43;52.39;102030.22;4988776;28;102793;-83
2022/05/08 08:30:49;;;;;;;14.85;2.40;;;;;;;15.42;52.57;102032.16;4985520;28;103781;-83
2022/05/08 08:33:17;;;;;;;10.43;2.40;;;;;;;15.42;51.03;102029.41;4989247;28;102650;-83
2022/05/08 08:35:43;;;;;;;3.72;2.42;;;;;;;15.43;51.77;102042.00;4989655;28;102484;-85
2022/05/08 08:38:10;;;;;;;15.32;2.30;;;;;;;15.43;51.28;102033.78;4990371;28;102993;-84
2022/05/08 08:40:40;;;;;;;9.18;1.90;;;;;;;15.44;51.72;102040.94;4989974;28;103385;-84
2022/05/08 08:43:09;;;;;;;12.10;2.15;;;;;;;15.44;50.65;102042.88;4994443;28;102173;-84
2022/05/08 08:48:33;;;;;;;6.82;1.98;;;;;;;15.44;51.46;102032.72;4995526;28;102941;-84
2022/05/08 08:51:02;;;;;;;8.45;2.35;;;;;;;15.45;51.92;102039.84;4994228;28;103833;-84
2022/05/08 08:53:29;;;;;;;7.22;1.63;;;;;;;15.44;51.23;102043.69;4991607;28;102103;-84
2022/05/08 08:55:57;;;;;;;10.30;2.75;;;;;;;15.44;50.74;102032.72;4986952;28;102422;-84
2022/05/08 08:58:23;;;;;;;6.45;1.85;;;;;;;15.46;49.74;102035.16;4983309;28;102661;-84
2022/05/08 09:00:50;;;;;;;6.60;1.60;;;;;;;15.45;50.38;102045.31;4993538;28;104140;-84
2022/05/08 09:03:20;;;;;;;8.23;1.88;;;;;;;15.46;51.01;102035.16;4987402;28;102097;-84
2022/05/08 09:05:48;;;;;;;4.65;1.45;;;;;;;15.44;50.71;102038.19;4985338;28;102190;-84
2022/05/08 09:08:25;;;;;;;4.00;1.58;;;;;;;15.45;50.70;102042.59;4989092;28;102163;-84
2022/05/08 09:10:54;;;;;;;2.53;1.60;;;;;;;15.45;50.53;102036.28;4979406;28;103882;-84
2022/05/08 09:13:23;;;;;;;5.13;1.73;;;;;;;15.44;49.85;102038.19;4989030;28;102576;-84
2022/05/08 09:15:53;;;;;;;5.90;1.92;;;;;;;15.43;49.81;102036.53;4994555;28;102144;-84
2022/05/08 09:18:20;;;;;;;5.78;2.17;;;;;;;15.43;50.36;102025.56;4993496;28;102312;-83
2022/05/08 09:20:48;;;;;;;8.20;2.20;;;;;;;15.44;50.06;102031.91;4995553;28;104064;-84
2022/05/08 09:23:16;;;;;;;;;;;;;;;15.43;50.22;102025.56;4994356;28;102358;-84
2022/05/08 09:25:52;;;;;;;8.13;2.03;;;;;;;15.44;49.91;102027.22;4995025;28;102133;-83
2022/05/08 09:28:21;;;;;;;4.78;2.20;;;;;;;15.44;49.51;102026.41;4996565;28;102034;-84
2022/05/08 09:30:59;;;;;;;4.47;1.57;;;;;;;15.43;49.74;102025.56;4992729;28;103005;-84
2022/05/08 09:33:28;;;;;;;4.57;1.45;;;;;;;15.45;49.27;102028.88;4981708;28;102109;-83
2022/05/08 09:35:57;;;;;;;5.25;1.77;;;;;;;15.44;49.44;102016.25;4995688;28;101940;-83
2022/05/08 09:38:40;;;;;;;3.63;1.57;;;;;;;15.44;49.67;102016.25;4986513;28;102428;-84
2022/05/08 09:41:07;;;;;;;5.15;1.90;;;;;;;15.43;49.11;102031.03;4992887;28;103880;-83
2022/05/08 09:43:34;;;;;;;4.85;1.67;;;;;;;15.43;48.59;102022.00;4998695;28;102045;-83
2022/05/08 09:46:03;;;;;;;4.25;1.48;;;;;;;15.44;49.10;102035.47;4997690;28;102532;-84
2022/05/08 09:48:33;;;;;;;7.15;1.98;;;;;;;15.44;48.91;102020.94;5000417;28;102215;-84
2022/05/08 09:51:02;;;;;;;5.00;1.20;;;;;;;15.42;49.44;102029.41;4991335;28;104389;-83
2022/05/08 09:53:30;;;;;;;3.47;1.70;;;;;;;15.42;48.87;102018.44;5003872;28;102506;-83
2022/05/08 09:56:00;;;;;;;5.38;1.80;;;;;;;15.42;48.95;102018.44;4990439;28;102354;-83
2022/05/08 09:58:27;;;;;;;2.67;1.33;;;;;;;15.42;49.04;102018.44;4992067;28;102147;-83
2022/05/08 10:00:56;;;;;;;3.47;1.35;;;;;;;15.42;48.72;102029.41;4991315;28;103834;-84
2022/05/08 10:03:24;;;;;;;3.63;1.48;;;;;;;15.41;48.79;102025.03;4985578;28;102226;-84
2022/05/08 10:05:51;;;;;;;3.63;1.77;;;;;;;15.41;48.94;102015.97;4983775;28;101974;-85
2022/05/08 10:08:22;;;;;;;2.47;1.35;;;;;;;15.41;48.98;102021.47;4992589;28;102183;-83
2022/05/08 10:14:04;;;;;;;3.85;1.45;;;;;;;15.40;48.11;102023.38;4994021;28;102165;-83
2022/05/08 10:16:51;;;;;;;4.13;1.48;;;;;;;15.39;48.46;102024.47;4992794;28;102440;-83
2022/05/08 10:19:45;;;;;;;2.33;1.10;;;;;;;15.40;48.24;102017.91;4993533;28;102594;-83
2022/05/08 10:22:16;;;;;;;5.30;2.13;;;;;;;15.38;48.08;102017.34;4983862;28;103887;-84
2022/05/08 10:24:47;;;;;;;5.43;2.10;;;;;;;15.38;48.33;102022.81;4979822;28;102414;-83
2022/05/08 10:27:15;;;;;;;4.35;1.40;;;;;;;15.38;48.04;102017.34;4989074;28;102099;-83
2022/05/08 10:30:03;;;;;;;3.33;1.30;;;;;;;15.37;48.22;102022.00;4990993;28;102962;-84
2022/05/08 10:32:51;;;;;;;3.47;1.30;;;;;;;15.36;48.21;102011.28;4991784;28;104438;-83
2022/05/08 10:35:20;;;;;;;3.35;1.90;;;;;;;15.36;47.89;102014.03;4984216;28;102231;-82
2022/05/08 10:37:49;;;;;;;;;;;;;;;15.35;48.55;102012.38;4990425;28;103664;-83
2022/05/08 10:40:37;;;;;;;2.65;1.33;;;;;;;15.35;48.42;102023.34;4992864;28;102363;-83
2022/05/08 10:43:28;;;;;;;6.30;1.65;;;;;;;15.34;48.15;102010.75;4996330;28;104059;-83
2022/05/08 10:45:56;;;;;;;4.60;1.20;;;;;;;15.33;47.93;102015.41;4997292;28;102227;-83
2022/05/08 10:48:30;;;;;;;3.33;1.43;;;;;;;15.32;47.82;102010.19;4988457;28;102008;-83
2022/05/08 10:50:59;;;;;;;6.82;0.98;;;;;;;15.32;48.00;102004.69;4985198;28;102683;-83
2022/05/08 10:53:26;;;;;;;;;;;;;;;15.32;48.33;101996.47;4996272;28;103892;-83
2022/05/08 10:56:07;;;;;;;7.82;1.40;;;;;;;15.31;48.12;102005.81;4998297;28;101972;-83
2022/05/08 10:58:36;;;;;;;5.10;1.40;;;;;;;15.31;47.35;102003.06;4995083;28;102256;-83
2022/05/08 11:01:04;;;;;;;6.45;1.50;;;;;;;15.30;47.66;101998.69;4996151;28;102538;-83
2022/05/08 11:03:35;;;;;;;3.58;1.40;;;;;;;15.30;47.82;101998.69;4992390;28;103625;-82
2022/05/08 11:06:03;;;;;;;4.22;1.50;;;;;;;15.29;47.74;101997.00;4984100;28;101893;-83
2022/05/08 11:08:32;;;;;;;2.85;1.60;;;;;;;15.28;47.83;101987.97;4984157;28;102247;-82
2022/05/08 11:11:02;;;;;;;2.80;1.42;;;;;;;15.28;47.74;101995.38;4996253;28;102495;-83
2022/05/08 11:13:40;;;;;;;3.72;1.45;;;;;;;15.27;47.44;101991.00;4986445;28;103900;-83
2022/05/08 11:16:06;;;;;;;5.43;1.83;;;;;;;15.27;47.69;101988.25;4975995;28;102217;-83
2022/05/08 11:18:33;;;;;;;5.60;1.30;;;;;;;15.27;47.74;101993.72;4980705;28;102553;-83
2022/05/08 11:21:01;;;;;;;4.50;1.52;;;;;;;15.26;47.90;101981.94;4987137;28;102647;-82
2022/05/08 11:23:30;;;;;;;5.78;1.30;;;;;;;15.26;47.78;101968.22;4989150;28;103427;-83
2022/05/08 11:26:00;;;;;;;5.45;1.33;;;;;;;15.25;47.58;101985.75;4990894;28;102992;-84
2022/05/08 11:28:30;;;;;;;34.30;3.50;;;;;;;15.26;47.27;101981.13;4993879;28;102511;-83
2022/05/08 11:30:59;;;;;;;;;;;;;;;15.25;47.45;101980.28;4990478;28;102093;-83
2022/05/08 11:36:25;;;;;;;5.13;1.33;;;;;;;15.25;46.91;101979.44;4974917;28;101916;-83
2022/05/08 11:38:55;;;;;;;13.68;2.58;;;;;;;15.25;47.39;101968.47;4976343;28;101929;-83
2022/05/08 11:41:24;;;;;;;5.78;1.80;;;;;;;15.24;47.07;101973.16;4982503;28;102508;-83
2022/05/08 11:43:52;;;;;;;;;;;;;;;15.24;47.69;101973.16;4982190;28;104172;-83
2022/05/08 11:46:31;;;;;;;3.85;1.30;;;;;;;15.24;47.45;101964.09;4982139;28;101900;-83
2022/05/08 11:48:58;;;;;;;7.28;1.65;;;;;;;15.25;47.08;101979.44;4975733;28;102424;-83